sensor_id;sensor_type;location;lat;lon;timestamp;pressure;altitude;pressure_sealevel;temperature;humidity
33191;BME280;19554;42.652;23.364;2023-02-12T00:00:43;95476.81;;;0.61;40.83
33191;BME280;19554;42.652;23.364;2023-02-12T00:03:08;95547.31;;;1.10;40.46
33191;BME280;19554;42.652;23.364;2023-02-12T00:05:37;95577.00;;;1.24;40.72
33191;BME280;19554;42.652;23.364;2023-02-12T00:08:02;95575.81;;;1.27;40.74
33191;BME280;19554;42.652;23.364;2023-02-12T00:10:28;95579.44;;;1.26;40.60
33191;BME280;19554;42.652;23.364;2023-02-12T00:12:53;95586.31;;;1.27;41.02
33191;BME280;19554;42.652;23.364;2023-02-12T00:15:19;95581.47;;;1.24;40.81
33191;BME280;19554;42.652;23.364;2023-02-12T00:17:44;95558.81;;;1.09;41.11
33191;BME280;19554;42.652;23.364;2023-02-12T00:20:10;95565.72;;;1.04;40.42
33191;BME280;19554;42.652;23.364;2023-02-12T00:22:35;95567.72;;;1.08;40.35
33191;BME280;19554;42.652;23.364;2023-02-12T00:25:01;95574.16;;;1.19;40.79
33191;BME280;19554;42.652;23.364;2023-02-12T00:27:26;95581.25;;;1.18;39.91
33191;BME280;19554;42.652;23.364;2023-02-12T00:29:52;95581.66;;;1.15;40.14
33191;BME280;19554;42.652;23.364;2023-02-12T00:32:17;95575.41;;;1.16;39.79
33191;BME280;19554;42.652;23.364;2023-02-12T00:34:45;95556.00;;;1.04;40.07
33191;BME280;19554;42.652;23.364;2023-02-12T00:37:10;95569.75;;;1.13;40.53
33191;BME280;19554;42.652;23.364;2023-02-12T00:39:36;95563.25;;;1.15;40.26
33191;BME280;19554;42.652;23.364;2023-02-12T00:42:02;95559.19;;;1.19;40.48
33191;BME280;19554;42.652;23.364;2023-02-12T00:44:28;95551.94;;;1.22;40.13
33191;BME280;19554;42.652;23.364;2023-02-12T00:46:53;95532.97;;;1.06;40.33
33191;BME280;19554;42.652;23.364;2023-02-12T00:49:19;95556.00;;;1.17;40.73
33191;BME280;19554;42.652;23.364;2023-02-12T00:51:45;95550.13;;;1.15;40.37
33191;BME280;19554;42.652;23.364;2023-02-12T00:54:10;95548.91;;;1.11;40.39
33191;BME280;19554;42.652;23.364;2023-02-12T00:56:35;95532.13;;;1.06;40.57
33191;BME280;19554;42.652;23.364;2023-02-12T00:59:01;95543.44;;;1.19;40.73
33191;BME280;19554;42.652;23.364;2023-02-12T01:01:26;95548.69;;;1.19;40.99
33191;BME280;19554;42.652;23.364;2023-02-12T01:03:51;95530.47;;;1.25;40.27
33191;BME280;19554;42.652;23.364;2023-02-12T01:06:17;95521.56;;;1.26;39.89
33191;BME280;19554;42.652;23.364;2023-02-12T01:08:42;95529.25;;;1.34;39.91
33191;BME280;19554;42.652;23.364;2023-02-12T01:11:12;95525.59;;;1.35;40.36
33191;BME280;19554;42.652;23.364;2023-02-12T01:13:37;95527.63;;;1.26;39.88
33191;BME280;19554;42.652;23.364;2023-02-12T01:16:11;95539.00;;;1.27;40.20
33191;BME280;19554;42.652;23.364;2023-02-12T01:18:38;95537.34;;;1.26;40.44
33191;BME280;19554;42.652;23.364;2023-02-12T01:27:46;95550.72;;;1.17;40.50
33191;BME280;19554;42.652;23.364;2023-02-12T01:30:13;95555.59;;;1.21;40.98
33191;BME280;19554;42.652;23.364;2023-02-12T01:32:38;95546.66;;;1.22;40.60
33191;BME280;19554;42.652;23.364;2023-02-12T01:35:04;95547.47;;;1.29;41.03
33191;BME280;19554;42.652;23.364;2023-02-12T01:37:30;95545.44;;;1.31;40.88
33191;BME280;19554;42.652;23.364;2023-02-12T01:39:56;95525.88;;;1.13;40.80
33191;BME280;19554;42.652;23.364;2023-02-12T01:42:21;95445.28;;;0.67;41.42
33191;BME280;19554;42.652;23.364;2023-02-12T01:47:37;95474.75;;;0.96;40.98
33191;BME280;19554;42.652;23.364;2023-02-12T01:50:03;95454.16;;;0.80;41.44
33191;BME280;19554;42.652;23.364;2023-02-12T01:52:32;95419.63;;;0.56;41.28
33191;BME280;19554;42.652;23.364;2023-02-12T01:55:01;95509.44;;;1.25;41.34
33191;BME280;19554;42.652;23.364;2023-02-12T01:57:31;95505.78;;;1.26;41.33
33191;BME280;19554;42.652;23.364;2023-02-12T01:59:59;95490.06;;;1.12;41.80
33191;BME280;19554;42.652;23.364;2023-02-12T02:02:26;95500.16;;;1.15;41.51
33191;BME280;19554;42.652;23.364;2023-02-12T02:04:55;95504.22;;;1.11;41.54
33191;BME280;19554;42.652;23.364;2023-02-12T02:07:22;95438.00;;;0.69;41.43
33191;BME280;19554;42.652;23.364;2023-02-12T02:09:48;95507.44;;;1.20;41.73
33191;BME280;19554;42.652;23.364;2023-02-12T02:12:14;95459.59;;;0.85;41.73
33191;BME280;19554;42.652;23.364;2023-02-12T02:14:58;95519.38;;;1.09;41.82
33191;BME280;19554;42.652;23.364;2023-02-12T02:18:00;95526.88;;;0.99;42.48
33191;BME280;19554;42.652;23.364;2023-02-12T02:30:59;95520.25;;;0.77;44.22
33191;BME280;19554;42.652;23.364;2023-02-12T02:33:44;95516.03;;;0.76;44.12
33191;BME280;19554;42.652;23.364;2023-02-12T02:41:42;95508.72;;;0.71;44.21
33191;BME280;19554;42.652;23.364;2023-02-12T02:44:28;95417.44;;;0.20;44.42
33191;BME280;19554;42.652;23.364;2023-02-12T02:46:55;95512.56;;;0.82;44.51
33191;BME280;19554;42.652;23.364;2023-02-12T02:49:26;95492.16;;;0.77;44.31
33191;BME280;19554;42.652;23.364;2023-02-12T02:51:59;95526.28;;;0.97;44.19
33191;BME280;19554;42.652;23.364;2023-02-12T02:54:32;95525.28;;;0.98;44.27
33191;BME280;19554;42.652;23.364;2023-02-12T02:57:13;95529.31;;;1.01;44.13
33191;BME280;19554;42.652;23.364;2023-02-12T02:59:48;95531.53;;;1.04;43.96
33191;BME280;19554;42.652;23.364;2023-02-12T03:02:21;95531.53;;;1.04;44.53
33191;BME280;19554;42.652;23.364;2023-02-12T03:04:56;95531.72;;;1.02;44.61
33191;BME280;19554;42.652;23.364;2023-02-12T03:07:27;95518.41;;;0.97;44.48
33191;BME280;19554;42.652;23.364;2023-02-12T03:10:01;95524.88;;;1.01;44.63
33191;BME280;19554;42.652;23.364;2023-02-12T03:12:40;95518.00;;;1.00;44.46
33191;BME280;19554;42.652;23.364;2023-02-12T03:15:32;95528.09;;;1.03;45.14
33191;BME280;19554;42.652;23.364;2023-02-12T03:18:05;95492.38;;;0.76;45.14
33191;BME280;19554;42.652;23.364;2023-02-12T03:20:32;95527.31;;;0.83;45.64
33191;BME280;19554;42.652;23.364;2023-02-12T03:23:05;95509.97;;;0.68;45.93
33191;BME280;19554;42.652;23.364;2023-02-12T03:25:37;95405.72;;;-0.04;46.24
33191;BME280;19554;42.652;23.364;2023-02-12T03:30:50;95513.19;;;0.70;46.56
33191;BME280;19554;42.652;23.364;2023-02-12T03:33:58;95513.59;;;0.61;46.82
33191;BME280;19554;42.652;23.364;2023-02-12T03:39:11;95457.44;;;0.29;47.35
33191;BME280;19554;42.652;23.364;2023-02-12T03:41:45;95498.63;;;0.61;47.30
33191;BME280;19554;42.652;23.364;2023-02-12T03:44:22;95502.25;;;0.74;47.31
33191;BME280;19554;42.652;23.364;2023-02-12T03:51:54;95468.75;;;0.49;47.22
33191;BME280;19554;42.652;23.364;2023-02-12T03:54:20;95513.00;;;0.72;46.85
33191;BME280;19554;42.652;23.364;2023-02-12T03:56:51;95500.25;;;0.69;47.09
33191;BME280;19554;42.652;23.364;2023-02-12T03:59:19;95507.13;;;0.77;47.40
33191;BME280;19554;42.652;23.364;2023-02-12T04:01:46;95500.66;;;0.79;47.34
33191;BME280;19554;42.652;23.364;2023-02-12T04:04:12;95472.78;;;0.58;47.61
33191;BME280;19554;42.652;23.364;2023-02-12T04:06:38;95491.75;;;0.74;47.56
33191;BME280;19554;42.652;23.364;2023-02-12T04:09:08;95504.09;;;0.80;47.46
33191;BME280;19554;42.652;23.364;2023-02-12T04:14:31;95508.09;;;0.89;47.07
33191;BME280;19554;42.652;23.364;2023-02-12T04:17:07;95513.34;;;0.89;47.49
33191;BME280;19554;42.652;23.364;2023-02-12T04:22:49;95521.22;;;1.02;47.06
33191;BME280;19554;42.652;23.364;2023-02-12T04:25:20;95521.03;;;1.04;47.31
33191;BME280;19554;42.652;23.364;2023-02-12T04:30:37;95521.63;;;0.99;47.58
33191;BME280;19554;42.652;23.364;2023-02-12T04:33:09;95482.84;;;0.75;47.45
33191;BME280;19554;42.652;23.364;2023-02-12T04:35:42;95526.69;;;0.94;47.86
33191;BME280;19554;42.652;23.364;2023-02-12T04:38:24;95530.13;;;0.88;47.54
33191;BME280;19554;42.652;23.364;2023-02-12T04:40:51;95517.63;;;0.77;48.08
33191;BME280;19554;42.652;23.364;2023-02-12T04:43:36;95502.88;;;0.62;47.91
33191;BME280;19554;42.652;23.364;2023-02-12T04:46:03;95529.75;;;0.78;48.01
33191;BME280;19554;42.652;23.364;2023-02-12T04:48:29;95378.91;;;-0.19;48.33
33191;BME280;19554;42.652;23.364;2023-02-12T04:50:54;95510.16;;;0.60;48.51
33191;BME280;19554;42.652;23.364;2023-02-12T04:53:20;95527.34;;;0.69;48.40
33191;BME280;19554;42.652;23.364;2023-02-12T04:55:45;95501.06;;;0.56;48.64
33191;BME280;19554;42.652;23.364;2023-02-12T04:58:12;95539.84;;;0.81;48.46
33191;BME280;19554;42.652;23.364;2023-02-12T05:00:37;95547.50;;;0.89;48.49
33191;BME280;19554;42.652;23.364;2023-02-12T05:03:03;95454.81;;;0.42;48.29
33191;BME280;19554;42.652;23.364;2023-02-12T05:05:29;95542.06;;;0.97;47.76
33191;BME280;19554;42.652;23.364;2023-02-12T05:07:54;95539.44;;;0.97;48.06
33191;BME280;19554;42.652;23.364;2023-02-12T05:10:20;95539.84;;;1.01;48.16
33191;BME280;19554;42.652;23.364;2023-02-12T05:12:45;95547.09;;;1.05;48.05
33191;BME280;19554;42.652;23.364;2023-02-12T05:15:10;95542.63;;;1.12;47.84
33191;BME280;19554;42.652;23.364;2023-02-12T05:17:36;95534.16;;;1.04;47.81
33191;BME280;19554;42.652;23.364;2023-02-12T05:20:02;95542.84;;;1.17;47.39
33191;BME280;19554;42.652;23.364;2023-02-12T05:22:28;95551.53;;;1.11;47.49
33191;BME280;19554;42.652;23.364;2023-02-12T05:24:53;95518.81;;;0.81;47.55
33191;BME280;19554;42.652;23.364;2023-02-12T05:27:19;95551.56;;;0.98;47.85
33191;BME280;19554;42.652;23.364;2023-02-12T05:29:44;95573.38;;;0.99;48.74
33191;BME280;19554;42.652;23.364;2023-02-12T05:32:09;95514.78;;;0.65;49.22
33191;BME280;19554;42.652;23.364;2023-02-12T05:34:35;95573.19;;;1.00;50.12
33191;BME280;19554;42.652;23.364;2023-02-12T05:37:01;95563.28;;;0.89;50.23
33191;BME280;19554;42.652;23.364;2023-02-12T05:39:26;95575.22;;;0.98;50.02
33191;BME280;19554;42.652;23.364;2023-02-12T05:41:52;95584.72;;;0.99;50.39
33191;BME280;19554;42.652;23.364;2023-02-12T05:44:17;95581.50;;;0.90;51.35
33191;BME280;19554;42.652;23.364;2023-02-12T05:46:43;95590.78;;;0.93;51.81
33191;BME280;19554;42.652;23.364;2023-02-12T05:49:09;95587.56;;;0.91;51.87
33191;BME280;19554;42.652;23.364;2023-02-12T05:51:35;95600.50;;;0.92;51.29
33191;BME280;19554;42.652;23.364;2023-02-12T05:54:03;95607.97;;;0.89;51.82
33191;BME280;19554;42.652;23.364;2023-02-12T05:56:38;95611.41;;;0.83;53.21
33191;BME280;19554;42.652;23.364;2023-02-12T05:59:07;95559.03;;;0.55;53.62
33191;BME280;19554;42.652;23.364;2023-02-12T06:01:38;95600.50;;;0.86;53.91
33191;BME280;19554;42.652;23.364;2023-02-12T06:04:07;95604.34;;;0.83;53.74
33191;BME280;19554;42.652;23.364;2023-02-12T06:06:35;95614.22;;;0.88;53.74
33191;BME280;19554;42.652;23.364;2023-02-12T06:09:01;95600.69;;;0.84;54.14
33191;BME280;19554;42.652;23.364;2023-02-12T06:11:27;95607.78;;;0.90;53.99
33191;BME280;19554;42.652;23.364;2023-02-12T06:13:52;95607.56;;;0.99;54.12
33191;BME280;19554;42.652;23.364;2023-02-12T06:16:21;95616.47;;;1.04;54.50
33191;BME280;19554;42.652;23.364;2023-02-12T06:18:48;95607.56;;;1.12;54.88
33191;BME280;19554;42.652;23.364;2023-02-12T06:21:15;95612.41;;;1.22;54.51
33191;BME280;19554;42.652;23.364;2023-02-12T06:23:40;95606.97;;;1.16;55.30
33191;BME280;19554;42.652;23.364;2023-02-12T06:26:06;95579.06;;;0.95;56.18
33191;BME280;19554;42.652;23.364;2023-02-12T06:28:32;95611.78;;;1.19;56.76
33191;BME280;19554;42.652;23.364;2023-02-12T06:30:57;95609.38;;;1.25;56.66
33191;BME280;19554;42.652;23.364;2023-02-12T06:33:23;95591.59;;;1.07;57.08
33191;BME280;19554;42.652;23.364;2023-02-12T06:35:48;95616.25;;;1.26;57.35
33191;BME280;19554;42.652;23.364;2023-02-12T06:38:13;95617.03;;;1.19;58.22
33191;BME280;19554;42.652;23.364;2023-02-12T06:40:39;95620.09;;;1.23;58.51
33191;BME280;19554;42.652;23.364;2023-02-12T06:43:04;95632.03;;;1.12;59.78
33191;BME280;19554;42.652;23.364;2023-02-12T06:45:30;95548.75;;;0.66;60.33
33191;BME280;19554;42.652;23.364;2023-02-12T06:47:55;95554.19;;;0.71;60.95
33191;BME280;19554;42.652;23.364;2023-02-12T06:50:20;95575.22;;;0.71;61.98
33191;BME280;19554;42.652;23.364;2023-02-12T06:52:46;95568.16;;;0.65;62.33
33191;BME280;19554;42.652;23.364;2023-02-12T06:55:11;95576.22;;;0.70;62.41
33191;BME280;19554;42.652;23.364;2023-02-12T06:57:37;95579.06;;;0.62;63.02
33191;BME280;19554;42.652;23.364;2023-02-12T07:00:02;95612.22;;;0.90;62.90
33191;BME280;19554;42.652;23.364;2023-02-12T07:02:28;95599.06;;;0.77;62.93
33191;BME280;19554;42.652;23.364;2023-02-12T07:04:53;95625.97;;;0.92;63.32
33191;BME280;19554;42.652;23.364;2023-02-12T07:07:19;95620.28;;;0.88;63.20
33191;BME280;19554;42.652;23.364;2023-02-12T07:09:44;95608.38;;;0.79;63.55
33191;BME280;19554;42.652;23.364;2023-02-12T07:12:09;95622.34;;;0.80;63.56
33191;BME280;19554;42.652;23.364;2023-02-12T07:14:35;95621.53;;;0.79;63.64
33191;BME280;19554;42.652;23.364;2023-02-12T07:17:00;95620.28;;;0.82;63.50
33191;BME280;19554;42.652;23.364;2023-02-12T07:19:28;95623.53;;;0.84;63.28
33191;BME280;19554;42.652;23.364;2023-02-12T07:21:54;95623.53;;;0.84;63.67
33191;BME280;19554;42.652;23.364;2023-02-12T07:24:20;95620.28;;;0.75;63.40
33191;BME280;19554;42.652;23.364;2023-02-12T07:26:45;95603.72;;;0.68;63.35
33191;BME280;19554;42.652;23.364;2023-02-12T07:29:10;95600.50;;;0.73;63.71
33191;BME280;19554;42.652;23.364;2023-02-12T07:31:36;95597.66;;;0.67;63.97
33191;BME280;19554;42.652;23.364;2023-02-12T07:34:02;95621.09;;;0.89;63.69
33191;BME280;19554;42.652;23.364;2023-02-12T07:36:30;95629.19;;;0.87;63.65
33191;BME280;19554;42.652;23.364;2023-02-12T07:38:56;95627.78;;;0.85;64.04
33191;BME280;19554;42.652;23.364;2023-02-12T07:41:24;95640.13;;;0.91;63.69
33191;BME280;19554;42.652;23.364;2023-02-12T07:43:58;95636.88;;;0.89;64.15
33191;BME280;19554;42.652;23.364;2023-02-12T07:46:26;95645.19;;;0.86;64.22
33191;BME280;19554;42.652;23.364;2023-02-12T07:48:56;95646.16;;;0.85;64.65
33191;BME280;19554;42.652;23.364;2023-02-12T07:51:22;95649.00;;;0.83;64.34
33191;BME280;19554;42.652;23.364;2023-02-12T07:53:48;95635.25;;;0.75;64.63
33191;BME280;19554;42.652;23.364;2023-02-12T07:56:17;95622.31;;;0.66;65.06
33191;BME280;19554;42.652;23.364;2023-02-12T07:58:44;95642.94;;;0.83;65.28
33191;BME280;19554;42.652;23.364;2023-02-12T08:01:31;95594.03;;;0.55;65.00
33191;BME280;19554;42.652;23.364;2023-02-12T08:03:59;95567.75;;;0.42;65.39
33191;BME280;19554;42.652;23.364;2023-02-12T08:06:28;95541.03;;;0.18;65.69
33191;BME280;19554;42.652;23.364;2023-02-12T08:08:56;95644.16;;;0.93;65.19
33191;BME280;19554;42.652;23.364;2023-02-12T08:11:22;95579.88;;;0.56;65.01
33191;BME280;19554;42.652;23.364;2023-02-12T08:13:47;95651.44;;;0.98;65.10
33191;BME280;19554;42.652;23.364;2023-02-12T08:16:16;95652.66;;;0.95;65.24
33191;BME280;19554;42.652;23.364;2023-02-12T08:18:41;95599.69;;;0.65;65.43
33191;BME280;19554;42.652;23.364;2023-02-12T08:21:09;95643.38;;;0.93;65.23
33191;BME280;19554;42.652;23.364;2023-02-12T08:23:35;95659.13;;;0.93;65.36
33191;BME280;19554;42.652;23.364;2023-02-12T08:29:09;95673.25;;;0.92;65.81
33191;BME280;19554;42.652;23.364;2023-02-12T08:31:38;95675.50;;;0.95;65.89
33191;BME280;19554;42.652;23.364;2023-02-12T08:34:04;95668.81;;;0.99;65.46
33191;BME280;19554;42.652;23.364;2023-02-12T08:36:38;95672.06;;;1.01;65.46
33191;BME280;19554;42.652;23.364;2023-02-12T08:39:05;95664.19;;;1.01;65.38
33191;BME280;19554;42.652;23.364;2023-02-12T08:41:31;95651.44;;;0.91;65.66
33191;BME280;19554;42.652;23.364;2023-02-12T08:43:59;95623.50;;;0.57;65.86
33191;BME280;19554;42.652;23.364;2023-02-12T08:46:27;95674.50;;;0.96;66.10
33191;BME280;19554;42.652;23.364;2023-02-12T08:48:58;95697.13;;;0.90;66.54
33191;BME280;19554;42.652;23.364;2023-02-12T08:51:33;95687.03;;;0.94;66.49
33191;BME280;19554;42.652;23.364;2023-02-12T08:54:01;95672.03;;;0.81;66.53
33191;BME280;19554;42.652;23.364;2023-02-12T08:56:28;95691.50;;;1.00;66.42
33191;BME280;19554;42.652;23.364;2023-02-12T08:58:55;95697.16;;;0.97;66.40
33191;BME280;19554;42.652;23.364;2023-02-12T09:01:23;95702.00;;;1.00;66.20
33191;BME280;19554;42.652;23.364;2023-02-12T09:03:50;95701.22;;;1.06;66.15
33191;BME280;19554;42.652;23.364;2023-02-12T09:06:18;95711.72;;;1.06;66.32
33191;BME280;19554;42.652;23.364;2023-02-12T09:08:44;95649.41;;;0.74;65.88
33191;BME280;19554;42.652;23.364;2023-02-12T09:11:12;95705.66;;;1.19;66.43
33191;BME280;19554;42.652;23.364;2023-02-12T09:13:38;95703.63;;;1.28;65.89
33191;BME280;19554;42.652;23.364;2023-02-12T09:16:06;95712.97;;;1.37;65.74
33191;BME280;19554;42.652;23.364;2023-02-12T09:18:31;95712.34;;;1.35;65.61
33191;BME280;19554;42.652;23.364;2023-02-12T09:21:05;95616.66;;;0.76;65.89
33191;BME280;19554;42.652;23.364;2023-02-12T09:23:31;95693.94;;;1.35;65.76
33191;BME280;19554;42.652;23.364;2023-02-12T09:25:57;95722.66;;;1.56;65.44
33191;BME280;19554;42.652;23.364;2023-02-12T09:28:23;95725.28;;;1.50;65.74
33191;BME280;19554;42.652;23.364;2023-02-12T09:30:48;95728.53;;;1.52;65.87
33191;BME280;19554;42.652;23.364;2023-02-12T09:33:14;95706.47;;;1.46;65.78
33191;BME280;19554;42.652;23.364;2023-02-12T09:35:39;95721.44;;;1.52;65.73
33191;BME280;19554;42.652;23.364;2023-02-12T09:38:05;95655.69;;;1.12;66.16
33191;BME280;19554;42.652;23.364;2023-02-12T09:40:56;95727.91;;;1.70;65.60
33191;BME280;19554;42.652;23.364;2023-02-12T09:46:34;95726.69;;;1.65;65.45
33191;BME280;19554;42.652;23.364;2023-02-12T09:49:16;95727.91;;;1.70;65.44
33191;BME280;19554;42.652;23.364;2023-02-12T09:51:45;95720.00;;;1.63;65.17
33191;BME280;19554;42.652;23.364;2023-02-12T09:54:18;95729.94;;;1.54;65.28
33191;BME280;19554;42.652;23.364;2023-02-12T09:56:51;95703.25;;;1.31;65.73
33191;BME280;19554;42.652;23.364;2023-02-12T09:59:38;95736.81;;;1.55;66.03
33191;BME280;19554;42.652;23.364;2023-02-12T10:02:15;95632.44;;;0.89;65.71
33191;BME280;19554;42.652;23.364;2023-02-12T10:04:46;95606.56;;;0.66;65.89
33191;BME280;19554;42.652;23.364;2023-02-12T10:07:27;95731.56;;;1.55;65.94
33191;BME280;19554;42.652;23.364;2023-02-12T10:12:53;95731.94;;;1.79;65.58
33191;BME280;19554;42.652;23.364;2023-02-12T10:15:38;95718.53;;;1.94;65.32
33191;BME280;19554;42.652;23.364;2023-02-12T10:25:55;95726.78;;;2.24;64.21
33191;BME280;19554;42.652;23.364;2023-02-12T10:28:30;95724.91;;;2.37;63.55
33191;BME280;19554;42.652;23.364;2023-02-12T10:31:03;95739.94;;;2.24;63.72
33191;BME280;19554;42.652;23.364;2023-02-12T10:33:36;95648.94;;;1.76;63.22
33191;BME280;19554;42.652;23.364;2023-02-12T10:38:34;95733.28;;;2.14;63.94
33191;BME280;19554;42.652;23.364;2023-02-12T10:41:02;95734.91;;;2.16;64.17
33191;BME280;19554;42.652;23.364;2023-02-12T10:43:28;95723.75;;;2.20;63.83
33191;BME280;19554;42.652;23.364;2023-02-12T10:45:54;95725.97;;;2.30;63.41
33191;BME280;19554;42.652;23.364;2023-02-12T10:48:32;95739.50;;;2.40;63.43
33191;BME280;19554;42.652;23.364;2023-02-12T10:53:38;95743.09;;;2.52;62.87
33191;BME280;19554;42.652;23.364;2023-02-12T10:56:21;95743.31;;;2.51;63.36
33191;BME280;19554;42.652;23.364;2023-02-12T11:01:29;95743.03;;;2.66;62.93
33191;BME280;19554;42.652;23.364;2023-02-12T11:03:56;95739.38;;;2.67;63.11
33191;BME280;19554;42.652;23.364;2023-02-12T11:06:30;95729.28;;;2.64;63.07
33191;BME280;19554;42.652;23.364;2023-02-12T11:08:57;95743.22;;;2.71;62.60
33191;BME280;19554;42.652;23.364;2023-02-12T11:11:27;95735.97;;;2.59;62.77
33191;BME280;19554;42.652;23.364;2023-02-12T11:13:56;95741.84;;;2.61;63.32
33191;BME280;19554;42.652;23.364;2023-02-12T11:16:36;95663.56;;;2.24;62.88
33191;BME280;19554;42.652;23.364;2023-02-12T11:19:07;95708.19;;;2.64;62.48
33191;BME280;19554;42.652;23.364;2023-02-12T11:21:43;95725.13;;;2.81;62.50
33191;BME280;19554;42.652;23.364;2023-02-12T11:24:29;95725.69;;;2.90;62.30
33191;BME280;19554;42.652;23.364;2023-02-12T11:27:28;95731.75;;;2.90;62.45
33191;BME280;19554;42.652;23.364;2023-02-12T11:30:23;95729.03;;;3.03;62.47
33191;BME280;19554;42.652;23.364;2023-02-12T11:32:49;95729.03;;;3.03;62.45
33191;BME280;19554;42.652;23.364;2023-02-12T11:35:18;95727.78;;;3.13;62.32
33191;BME280;19554;42.652;23.364;2023-02-12T11:37:51;95723.44;;;3.25;61.93
33191;BME280;19554;42.652;23.364;2023-02-12T11:40:33;95636.56;;;2.67;62.43
33191;BME280;19554;42.652;23.364;2023-02-12T11:43:02;95722.06;;;3.16;61.93
33191;BME280;19554;42.652;23.364;2023-02-12T11:45:36;95699.50;;;2.95;62.03
33191;BME280;19554;42.652;23.364;2023-02-12T11:48:33;95725.13;;;3.13;62.44
33191;BME280;19554;42.652;23.364;2023-02-12T11:51:01;95709.91;;;3.15;62.33
33191;BME280;19554;42.652;23.364;2023-02-12T11:56:01;95728.13;;;3.23;61.44
33191;BME280;19554;42.652;23.364;2023-02-12T11:58:28;95729.56;;;3.19;61.95
33191;BME280;19554;42.652;23.364;2023-02-12T12:06:03;95728.34;;;3.46;60.84
33191;BME280;19554;42.652;23.364;2023-02-12T12:09:02;95723.50;;;3.43;60.41
33191;BME280;19554;42.652;23.364;2023-02-12T12:11:36;95727.00;;;3.37;61.18
33191;BME280;19554;42.652;23.364;2023-02-12T12:14:10;95730.25;;;3.39;60.59
33191;BME280;19554;42.652;23.364;2023-02-12T12:17:13;95727.16;;;3.42;60.70
33191;BME280;19554;42.652;23.364;2023-02-12T12:20:10;95711.44;;;3.29;60.66
33191;BME280;19554;42.652;23.364;2023-02-12T12:22:45;95731.56;;;3.48;60.40
33191;BME280;19554;42.652;23.364;2023-02-12T12:25:25;95734.06;;;3.43;60.84
33191;BME280;19554;42.652;23.364;2023-02-12T12:28:25;95734.88;;;3.44;60.60
33191;BME280;19554;42.652;23.364;2023-02-12T12:31:07;95734.88;;;3.44;60.81
33191;BME280;19554;42.652;23.364;2023-02-12T12:33:48;95734.06;;;3.43;60.96
33191;BME280;19554;42.652;23.364;2023-02-12T12:50:33;95749.25;;;3.73;59.01
33191;BME280;19554;42.652;23.364;2023-02-12T12:53:13;95748.31;;;3.86;59.00
33191;BME280;19554;42.652;23.364;2023-02-12T12:56:09;95753.16;;;3.89;58.60
33191;BME280;19554;42.652;23.364;2023-02-12T13:01:26;95764.06;;;3.74;58.75
33191;BME280;19554;42.652;23.364;2023-02-12T13:09:41;95767.09;;;3.52;59.70
33191;BME280;19554;42.652;23.364;2023-02-12T13:25:22;95770.81;;;3.70;59.64
33191;BME280;19554;42.652;23.364;2023-02-12T13:27:55;95660.91;;;3.00;59.69
33191;BME280;19554;42.652;23.364;2023-02-12T13:30:44;95772.41;;;3.71;59.70
33191;BME280;19554;42.652;23.364;2023-02-12T13:33:24;95774.88;;;3.66;60.01
33191;BME280;19554;42.652;23.364;2023-02-12T13:35:56;95772.41;;;3.71;59.85
33191;BME280;19554;42.652;23.364;2023-02-12T13:38:29;95779.34;;;3.65;59.96
33191;BME280;19554;42.652;23.364;2023-02-12T13:41:04;95773.56;;;3.56;60.22
33191;BME280;19554;42.652;23.364;2023-02-12T13:46:35;95781.56;;;3.43;60.30
33191;BME280;19554;42.652;23.364;2023-02-12T13:52:22;95781.25;;;3.26;61.07
33191;BME280;19554;42.652;23.364;2023-02-12T13:58:57;95792.03;;;3.25;61.47
33191;BME280;19554;42.652;23.364;2023-02-12T14:01:09;95794.50;;;3.20;61.72
33191;BME280;19554;42.652;23.364;2023-02-12T14:03:36;95792.66;;;3.20;62.00
33191;BME280;19554;42.652;23.364;2023-02-12T14:06:12;95793.41;;;3.27;62.01
33191;BME280;19554;42.652;23.364;2023-02-12T14:08:45;95799.28;;;3.36;62.06
33191;BME280;19554;42.652;23.364;2023-02-12T14:11:17;95810.75;;;3.48;61.47
33191;BME280;19554;42.652;23.364;2023-02-12T14:14:02;95804.63;;;3.54;60.93
33191;BME280;19554;42.652;23.364;2023-02-12T14:22:11;95811.91;;;3.59;60.68
33191;BME280;19554;42.652;23.364;2023-02-12T14:27:04;95825.66;;;3.68;60.51
33191;BME280;19554;42.652;23.364;2023-02-12T14:29:36;95792.50;;;3.47;60.58
33191;BME280;19554;42.652;23.364;2023-02-12T14:32:01;95829.31;;;3.67;60.64
33191;BME280;19554;42.652;23.364;2023-02-12T14:37:11;95837.47;;;3.59;60.69
33191;BME280;19554;42.652;23.364;2023-02-12T14:39:38;95838.25;;;3.66;60.57
33191;BME280;19554;42.652;23.364;2023-02-12T14:50:00;95850.88;;;3.64;60.61
33191;BME280;19554;42.652;23.364;2023-02-12T14:52:30;95851.72;;;3.58;60.72
33191;BME280;19554;42.652;23.364;2023-02-12T14:54:58;95796.28;;;3.26;60.42
33191;BME280;19554;42.652;23.364;2023-02-12T14:57:31;95862.22;;;3.64;60.66
33191;BME280;19554;42.652;23.364;2023-02-12T15:00:31;95868.66;;;3.75;60.37
33191;BME280;19554;42.652;23.364;2023-02-12T15:03:17;95875.50;;;3.83;60.16
33191;BME280;19554;42.652;23.364;2023-02-12T15:06:08;95873.94;;;3.75;60.02
33191;BME280;19554;42.652;23.364;2023-02-12T15:08:57;95878.38;;;3.81;60.06
33191;BME280;19554;42.652;23.364;2023-02-12T15:11:47;95889.69;;;3.88;59.54
33191;BME280;19554;42.652;23.364;2023-02-12T15:14:18;95899.06;;;3.84;59.80
33191;BME280;19554;42.652;23.364;2023-02-12T15:19:15;95913.31;;;3.83;59.98
33191;BME280;19554;42.652;23.364;2023-02-12T15:21:42;95902.81;;;3.70;60.15
33191;BME280;19554;42.652;23.364;2023-02-12T15:24:12;95912.50;;;3.76;59.93
33191;BME280;19554;42.652;23.364;2023-02-12T15:26:44;95918.88;;;3.68;60.26
33191;BME280;19554;42.652;23.364;2023-02-12T15:31:49;95932.50;;;3.59;60.77
33191;BME280;19554;42.652;23.364;2023-02-12T15:34:19;95946.50;;;3.66;60.91
33191;BME280;19554;42.652;23.364;2023-02-12T15:36:46;95948.31;;;3.65;60.88
33191;BME280;19554;42.652;23.364;2023-02-12T15:39:20;95943.00;;;3.72;60.59
33191;BME280;19554;42.652;23.364;2023-02-12T15:41:46;95857.22;;;3.11;60.77
33191;BME280;19554;42.652;23.364;2023-02-12T15:44:29;95956.06;;;3.67;61.00